Time;durP1;ratioP1;P1;durP2;ratioP2;P2;SDS_P1;SDS_P2;PMS_P1;PMS_P2;Temp;Humidity;BMP_temperature;BMP_pressure;BME280_temperature;BME280_humidity;BME280_pressure;Samples;Min_cycle;Max_cycle;Signal;HPM_P1;HPM_P2
2021/04/17 00:00:07;;;;;;;8.73;3.40;;;;;;;5.55;75.53;101590.66;5201598;28;20375;-77
2021/04/17 00:02:38;;;;;;;9.20;3.10;;;;;;;5.81;74.57;101586.34;5200706;28;20083;-77
2021/04/17 00:05:09;;;;;;;6.38;2.38;;;;;;;5.61;74.94;101590.66;5201230;28;20391;-77
2021/04/17 00:07:39;;;;;;;7.10;2.38;;;;;;;5.50;75.83;101592.34;5200971;28;20060;-77
2021/04/17 00:10:10;;;;;;;5.90;2.30;;;;;;;5.36;76.94;101583.69;5201385;28;20060;-77
2021/04/17 00:12:41;;;;;;;4.95;2.30;;;;;;;5.31;76.68;101590.59;5200708;28;20044;-77
2021/04/17 00:15:11;;;;;;;6.20;2.50;;;;;;;5.27;77.64;101599.22;5201178;28;20030;-77
2021/04/17 00:17:42;;;;;;;5.70;2.80;;;;;;;5.18;77.90;101588.84;5201661;28;20099;-77
2021/04/17 00:20:13;;;;;;;6.18;2.80;;;;;;;4.84;81.22;101592.19;5201209;28;20022;-77
2021/04/17 00:22:43;;;;;;;8.30;2.13;;;;;;;4.27;84.08;101606.59;5199729;28;20044;-77
2021/04/17 00:25:14;;;;;;;5.95;2.30;;;;;;;4.51;83.33;101599.84;5193852;28;20067;-77
2021/04/17 00:27:44;;;;;;;6.35;2.60;;;;;;;4.58;82.12;101593.81;5193883;28;20033;-77
2021/04/17 00:30:15;;;;;;;5.25;2.45;;;;;;;4.59;82.98;101579.13;5200880;28;20025;-76
2021/04/17 00:32:45;;;;;;;7.07;2.28;;;;;;;4.84;81.88;101583.56;5201282;28;20507;-77
2021/04/17 00:35:17;;;;;;;6.07;2.17;;;;;;;5.34;80.83;101580.22;5201293;28;20041;-77
2021/04/17 00:37:47;;;;;;;8.40;2.38;;;;;;;5.27;79.70;101583.69;5200614;28;20025;-77
2021/04/17 00:40:17;;;;;;;4.68;2.00;;;;;;;5.14;81.11;101575.91;5200926;28;20052;-76
2021/04/17 00:42:48;;;;;;;6.13;2.25;;;;;;;5.31;80.61;101579.38;5201306;28;20041;-77
2021/04/17 00:45:19;;;;;;;7.05;2.55;;;;;;;5.28;80.50;101580.22;5198391;28;20144;-77
2021/04/17 00:47:49;;;;;;;7.18;2.30;;;;;;;5.11;81.35;101571.56;5201029;28;20121;-76
2021/04/17 00:50:20;;;;;;;4.90;2.35;;;;;;;5.08;81.73;101579.31;5202987;28;20132;-77
2021/04/17 00:52:52;;;;;;;5.28;2.58;;;;;;;4.81;82.35;101575.78;5206707;28;20439;-77
2021/04/17 00:55:23;;;;;;;4.90;2.05;;;;;;;4.74;84.46;101568.84;5194374;28;20033;-77
2021/04/17 00:57:53;;;;;;;8.60;3.05;;;;;;;4.22;87.93;101578.09;5211306;28;20530;-77
2021/04/17 01:00:24;;;;;;;6.25;2.40;;;;;;;4.25;88.62;101572.94;5210711;28;20033;-77
2021/04/17 01:03:05;;;;;;;7.43;2.40;;;;;;;4.14;89.28;101574.56;5204244;28;20061;-76
2021/04/17 01:05:39;;;;;;;8.50;2.85;;;;;;;4.15;89.46;101571.13;5205124;28;20419;-77
2021/04/17 01:08:22;;;;;;;4.40;2.10;;;;;;;4.25;88.43;101567.75;5204538;28;20110;-76
2021/04/17 01:10:56;;;;;;;4.97;2.63;;;;;;;4.26;88.31;101574.66;5204500;28;20025;-77
2021/04/17 01:13:27;;;;;;;5.65;2.58;;;;;;;4.43;87.50;101578.19;5204105;28;20154;-76
2021/04/17 01:15:58;;;;;;;5.55;2.40;;;;;;;4.75;85.19;101574.03;5204707;28;20029;-76
2021/04/17 01:18:29;;;;;;;11.38;2.42;;;;;;;4.54;85.63;101576.53;5204654;28;20033;-77
2021/04/17 01:21:01;;;;;;;4.97;2.33;;;;;;;4.57;86.54;101576.56;5204450;28;20518;-77
2021/04/17 01:23:41;;;;;;;6.70;2.17;;;;;;;4.80;85.30;101569.72;5205675;28;20083;-77
2021/04/17 01:26:22;;;;;;;5.10;2.17;;;;;;;4.82;84.16;101569.75;5198467;28;20487;-76
2021/04/17 01:28:56;;;;;;;6.18;2.00;;;;;;;4.75;85.35;101571.44;5204538;28;20033;-76
2021/04/17 01:31:30;;;;;;;5.65;2.00;;;;;;;4.51;85.57;101579.13;5204211;28;20029;-76
2021/04/17 01:34:03;;;;;;;7.20;2.20;;;;;;;4.49;85.86;101580.81;5203056;28;20361;-76
2021/04/17 01:36:36;;;;;;;7.10;2.08;;;;;;;4.39;86.29;101580.75;5199330;28;20037;-77
2021/04/17 01:39:11;;;;;;;5.45;2.08;;;;;;;4.40;86.67;101572.13;5203984;28;20028;-76
2021/04/17 01:41:46;;;;;;;;;;;;;;;4.54;86.48;101579.13;5200409;28;20035;-77
2021/04/17 01:44:25;;;;;;;5.55;2.30;;;;;;;4.59;85.47;101574.84;5200750;28;19917;-77
2021/04/17 01:47:00;;;;;;;6.63;2.13;;;;;;;4.55;85.39;101567.91;5204388;28;20022;-76
2021/04/17 01:49:33;;;;;;;5.80;2.58;;;;;;;4.55;84.92;101564.44;5204075;28;20040;-76
2021/04/17 01:52:05;;;;;;;6.63;2.50;;;;;;;4.35;87.08;101573.84;5202054;28;20049;-76
2021/04/17 01:54:49;;;;;;;5.07;2.40;;;;;;;4.52;85.72;101567.91;5212754;28;20437;-76
2021/04/17 01:57:24;;;;;;;6.53;2.45;;;;;;;4.43;85.07;101567.84;5203885;28;20032;-77
2021/04/17 01:59:55;;;;;;;6.10;2.55;;;;;;;4.31;86.97;101566.94;5203791;28;20061;-77
2021/04/17 02:02:26;;;;;;;6.47;2.35;;;;;;;4.20;88.07;101569.47;5205210;28;20029;-77
2021/04/17 02:04:56;;;;;;;4.78;1.83;;;;;;;3.87;89.08;101568.34;5200222;28;20041;-77
2021/04/17 02:07:27;;;;;;;6.75;2.08;;;;;;;4.06;88.43;101570.22;5195306;28;20039;-76
2021/04/17 02:09:57;;;;;;;7.20;2.03;;;;;;;4.02;87.94;101564.19;5191522;28;20491;-76
2021/04/17 02:12:27;;;;;;;7.63;2.10;;;;;;;3.67;89.11;101565.66;5203161;28;20048;-77
2021/04/17 02:14:58;;;;;;;6.07;2.13;;;;;;;3.97;86.76;101558.09;5202554;28;20531;-77
2021/04/17 02:17:34;;;;;;;6.22;1.83;;;;;;;4.17;86.24;101551.34;5203839;28;20034;-77
2021/04/17 02:20:07;;;;;;;12.52;2.30;;;;;;;4.06;87.20;101550.41;5203464;28;20036;-76
2021/04/17 02:22:39;;;;;;;7.78;2.20;;;;;;;4.20;87.79;101548.75;5203365;28;20028;-77
2021/04/17 02:25:12;;;;;;;12.13;2.13;;;;;;;4.17;87.72;101548.75;5211395;28;20549;-77
2021/04/17 02:27:42;;;;;;;6.10;2.03;;;;;;;4.41;85.62;101545.41;5203351;28;20486;-77
2021/04/17 02:30:13;;;;;;;7.68;1.90;;;;;;;4.28;85.52;101544.47;5203571;28;20025;-77
2021/04/17 02:32:44;;;;;;;3.92;1.90;;;;;;;4.35;87.43;101547.97;5207491;28;20397;-77
2021/04/17 02:35:14;;;;;;;4.60;1.80;;;;;;;4.20;90.11;101541.00;5201931;28;20032;-77
2021/04/17 02:37:45;;;;;;;3.97;1.33;;;;;;;4.31;89.64;101547.09;5200820;28;20052;-77
2021/04/17 02:40:15;;;;;;;4.43;1.75;;;;;;;4.23;90.44;101551.38;5201772;28;20033;-77
2021/04/17 02:42:45;;;;;;;3.45;1.48;;;;;;;4.08;92.93;101540.94;5200531;28;20435;-77
2021/04/17 02:45:16;;;;;;;5.70;2.13;;;;;;;3.99;92.84;101540.84;5195845;28;20083;-77
2021/04/17 02:47:46;;;;;;;5.10;1.63;;;;;;;3.90;92.40;101532.19;5201296;28;20056;-77
2021/04/17 02:50:17;;;;;;;8.30;2.15;;;;;;;3.68;92.49;101541.53;5200372;28;20100;-77
2021/04/17 02:52:49;;;;;;;4.07;1.90;;;;;;;3.83;91.68;101539.06;5203191;28;21054;-77
2021/04/17 02:55:20;;;;;;;5.40;2.10;;;;;;;3.85;90.90;101529.59;5202416;28;20060;-77
2021/04/17 02:57:50;;;;;;;7.35;2.13;;;;;;;3.89;89.54;101526.16;5199574;28;20384;-77
2021/04/17 03:00:25;;;;;;;4.80;1.85;;;;;;;3.86;90.10;101520.97;5201988;28;20029;-77
2021/04/17 03:02:55;;;;;;;8.52;2.03;;;;;;;4.07;89.77;101525.38;5201256;28;20033;-76
2021/04/17 03:05:26;;;;;;;7.28;2.40;;;;;;;4.13;87.87;101522.84;5202345;28;20033;-77
2021/04/17 03:07:56;;;;;;;6.78;2.13;;;;;;;4.20;88.10;101522.91;5202373;28;20120;-77
2021/04/17 03:10:27;;;;;;;7.93;2.22;;;;;;;4.10;88.52;101531.44;5201310;28;20025;-76
2021/04/17 03:12:57;;;;;;;5.35;1.80;;;;;;;3.98;90.41;101522.75;5201052;28;20116;-77
2021/04/17 03:15:27;;;;;;;7.35;2.40;;;;;;;3.92;90.41;101526.16;5202515;28;20033;-77
2021/04/17 03:17:58;;;;;;;6.00;1.92;;;;;;;4.00;90.17;101537.44;5202544;28;20025;-77
2021/04/17 03:20:29;;;;;;;4.97;2.20;;;;;;;4.23;88.92;101538.44;5205944;28;20041;-77
2021/04/17 03:22:59;;;;;;;5.43;2.20;;;;;;;4.16;90.22;101533.22;5206530;28;20033;-77
2021/04/17 03:25:30;;;;;;;5.53;2.30;;;;;;;4.15;90.21;101537.50;5207696;28;20091;-77
2021/04/17 03:28:01;;;;;;;6.75;2.38;;;;;;;4.37;88.96;101531.59;5202189;28;20068;-77
2021/04/17 03:30:31;;;;;;;6.25;2.47;;;;;;;4.52;87.09;101529.09;5203921;28;20495;-77
2021/04/17 03:33:02;;;;;;;6.13;2.40;;;;;;;4.55;88.08;101529.09;5201851;28;20022;-77
2021/04/17 03:35:33;;;;;;;6.65;2.55;;;;;;;4.60;87.74;101534.28;5202600;28;20068;-77
2021/04/17 03:38:03;;;;;;;4.57;2.35;;;;;;;4.60;87.75;101519.63;5201348;28;20565;-77
2021/04/17 03:40:33;;;;;;;5.63;2.45;;;;;;;4.79;86.66;101517.97;5202250;28;20083;-77
2021/04/17 03:43:04;;;;;;;5.07;2.25;;;;;;;4.50;89.06;101522.16;5199745;28;20033;-77
2021/04/17 03:45:34;;;;;;;7.00;2.35;;;;;;;4.49;90.35;101521.28;5200455;28;20037;-77
2021/04/17 03:48:05;;;;;;;5.03;2.20;;;;;;;4.68;89.88;101517.94;5201694;28;20033;-77
2021/04/17 03:50:37;;;;;;;5.75;2.25;;;;;;;4.79;90.64;101515.38;5201603;28;20483;-77
2021/04/17 03:53:07;;;;;;;5.47;2.13;;;;;;;4.89;90.83;101520.56;5204142;28;20111;-77
2021/04/17 03:55:38;;;;;;;7.30;2.60;;;;;;;4.69;89.53;101522.25;5207912;28;20172;-77
2021/04/17 03:58:08;;;;;;;7.28;2.75;;;;;;;4.85;87.85;101526.63;5211245;28;20083;-77
2021/04/17 04:00:39;;;;;;;7.97;2.65;;;;;;;4.89;84.88;101523.16;5203503;28;20033;-77
2021/04/17 04:03:09;;;;;;;8.70;3.15;;;;;;;4.92;81.06;101522.28;5200898;28;20059;-77
2021/04/17 04:05:39;;;;;;;9.18;3.00;;;;;;;5.08;81.70;101529.22;5200215;28;20502;-77
2021/04/17 04:08:09;;;;;;;6.10;2.40;;;;;;;5.07;79.21;101538.75;5203525;28;20043;-77
2021/04/17 04:10:40;;;;;;;6.63;2.42;;;;;;;5.26;78.42;101530.13;5196639;28;20469;-77
2021/04/17 04:13:10;;;;;;;8.55;2.20;;;;;;;5.27;79.92;101536.16;5198093;28;20018;-77
2021/04/17 04:15:40;;;;;;;6.65;1.90;;;;;;;5.20;80.57;101530.13;5201824;28;20022;-77
2021/04/17 04:18:11;;;;;;;5.25;2.00;;;;;;;5.21;80.09;101521.50;5201063;28;20082;-77
2021/04/17 04:20:41;;;;;;;5.40;1.98;;;;;;;5.01;77.49;101535.28;5201669;28;20037;-77
2021/04/17 04:23:11;;;;;;;7.95;3.05;;;;;;;5.19;76.77;101538.75;5203947;28;20101;-77
2021/04/17 04:25:41;;;;;;;10.15;4.38;;;;;;;5.36;77.13;101539.63;5204088;28;20025;-77
2021/04/17 04:28:12;;;;;;;10.30;3.35;;;;;;;5.58;74.98;101534.44;5201716;28;20044;-77
2021/04/17 04:30:42;;;;;;;7.07;3.10;;;;;;;5.46;75.55;101534.47;5199693;28;20029;-77
2021/04/17 04:33:13;;;;;;;6.57;2.35;;;;;;;5.40;76.17;101538.78;5202079;28;20044;-77
2021/04/17 04:35:43;;;;;;;5.55;1.80;;;;;;;5.34;76.18;101540.50;5202902;28;20025;-77
2021/04/17 04:38:13;;;;;;;7.05;2.00;;;;;;;5.40;77.09;101518.91;5201370;28;20033;-77
2021/04/17 04:40:44;;;;;;;6.95;1.95;;;;;;;5.39;76.74;101537.06;5201587;28;20113;-77
2021/04/17 04:43:14;;;;;;;5.40;1.95;;;;;;;5.55;74.75;101543.97;5200622;28;20092;-77
2021/04/17 04:45:44;;;;;;;8.70;2.78;;;;;;;5.49;74.25;101534.47;5201731;28;20044;-77
2021/04/17 04:48:15;;;;;;;9.20;3.78;;;;;;;5.35;76.50;101532.72;5200784;28;20021;-77
2021/04/17 04:50:45;;;;;;;8.10;3.35;;;;;;;5.49;75.19;101541.38;5201587;28;20464;-77
2021/04/17 04:53:15;;;;;;;6.80;2.10;;;;;;;5.52;74.71;101533.59;5202496;28;20031;-77
2021/04/17 04:55:46;;;;;;;7.75;2.40;;;;;;;5.37;75.56;101519.78;5201610;28;20603;-77
2021/04/17 04:58:16;;;;;;;6.00;2.10;;;;;;;5.59;75.64;101527.56;5201315;28;20037;-77
2021/04/17 05:00:46;;;;;;;4.53;2.13;;;;;;;5.47;76.06;101524.94;5201111;28;20030;-77
2021/04/17 05:03:17;;;;;;;6.43;2.40;;;;;;;5.55;76.38;101528.44;5200533;28;20084;-77
2021/04/17 05:05:47;;;;;;;11.55;4.35;;;;;;;5.77;76.00;101523.19;5201144;28;20109;-77
2021/04/17 05:08:18;;;;;;;8.30;2.70;;;;;;;5.65;76.06;101535.31;5201402;28;20490;-77
2021/04/17 05:10:48;;;;;;;6.60;2.53;;;;;;;5.71;75.61;101532.75;5199574;28;20039;-77
2021/04/17 05:13:18;;;;;;;8.93;2.97;;;;;;;5.49;76.55;101521.50;5200092;28;20095;-77
2021/04/17 05:15:48;;;;;;;7.53;2.47;;;;;;;5.63;77.23;101526.69;5200909;28;20045;-77
2021/04/17 05:18:19;;;;;;;7.50;2.55;;;;;;;5.54;78.64;101521.53;5198620;28;20030;-77
2021/04/17 05:20:49;;;;;;;6.70;2.13;;;;;;;5.49;78.03;101512.84;5201184;28;20025;-77
2021/04/17 05:23:19;;;;;;;5.95;2.08;;;;;;;5.48;79.73;101490.38;5203637;28;20045;-77
2021/04/17 05:25:49;;;;;;;5.97;2.20;;;;;;;5.44;79.52;101499.88;5202300;28;20658;-77
2021/04/17 05:28:20;;;;;;;5.85;2.00;;;;;;;5.24;80.29;101489.53;5201405;28;20123;-77
2021/04/17 05:30:50;;;;;;;5.53;2.22;;;;;;;5.10;81.47;101481.75;5200852;28;20120;-77
2021/04/17 05:33:20;;;;;;;8.18;2.45;;;;;;;5.34;80.58;101476.56;5200690;28;20395;-77
2021/04/17 05:35:51;;;;;;;6.47;2.55;;;;;;;5.51;79.87;101483.47;5202016;28;20026;-77
2021/04/17 05:38:21;;;;;;;8.40;2.03;;;;;;;5.41;80.07;101489.53;5204694;28;20033;-77
2021/04/17 05:40:51;;;;;;;7.60;2.35;;;;;;;5.19;80.16;101486.91;5204458;28;20625;-77
2021/04/17 05:43:22;;;;;;;6.30;2.58;;;;;;;5.45;79.52;101477.44;5201016;28;20033;-77
2021/04/17 05:45:52;;;;;;;10.85;2.80;;;;;;;5.38;79.13;101493.88;5204796;28;20750;-77
2021/04/17 05:48:22;;;;;;;8.77;2.45;;;;;;;5.18;79.95;101492.13;5204220;28;20111;-77
2021/04/17 05:50:53;;;;;;;5.55;2.30;;;;;;;5.10;80.44;101486.94;5204423;28;20029;-77
2021/04/17 05:53:24;;;;;;;8.18;2.78;;;;;;;5.50;79.55;101489.53;5207579;28;20060;-77
2021/04/17 05:55:54;;;;;;;9.40;2.90;;;;;;;5.46;78.87;101502.50;5209063;28;20029;-77
2021/04/17 05:58:24;;;;;;;8.02;3.47;;;;;;;5.26;79.85;101505.94;5203759;28;20029;-77
2021/04/17 06:00:55;;;;;;;6.65;2.75;;;;;;;5.38;79.41;101512.84;5204056;28;20021;-77
2021/04/17 06:03:27;;;;;;;4.93;2.58;;;;;;;5.30;80.15;101500.75;5201705;28;20037;-77
2021/04/17 06:05:57;;;;;;;7.30;2.38;;;;;;;5.34;80.96;101506.81;5203873;28;20431;-77
2021/04/17 06:08:28;;;;;;;6.47;2.40;;;;;;;5.51;79.90;101505.94;5204027;28;20080;-77
2021/04/17 06:10:58;;;;;;;9.88;3.20;;;;;;;5.64;78.59;101497.28;5203786;28;20751;-78
2021/04/17 06:13:28;;;;;;;7.15;2.75;;;;;;;5.75;78.37;101498.16;5202909;28;20488;-77
2021/04/17 06:16:04;;;;;;;9.93;3.28;;;;;;;5.75;78.02;101492.97;5199746;28;20021;-77
2021/04/17 06:18:36;;;;;;;7.95;2.70;;;;;;;5.78;78.22;101505.94;5203772;28;20064;-77
2021/04/17 06:21:06;;;;;;;10.98;3.40;;;;;;;5.75;77.16;101500.75;5203688;28;20048;-77
2021/04/17 06:23:37;;;;;;;9.77;2.72;;;;;;;5.67;78.75;101502.47;5207550;28;20482;-77
2021/04/17 06:26:07;;;;;;;6.18;2.88;;;;;;;5.90;77.50;101505.94;5200505;28;20029;-78
2021/04/17 06:28:37;;;;;;;10.57;3.85;;;;;;;6.04;77.51;101510.22;5195387;28;20025;-77
2021/04/17 06:31:08;;;;;;;9.45;3.42;;;;;;;5.98;75.99;101509.38;5192409;28;20022;-77
2021/04/17 06:33:38;;;;;;;11.82;3.80;;;;;;;5.90;76.75;101509.38;5193669;28;20065;-77
2021/04/17 06:36:08;;;;;;;7.57;2.55;;;;;;;5.82;77.53;101497.31;5200537;28;20030;-77
2021/04/17 06:38:39;;;;;;;8.63;2.65;;;;;;;5.98;76.71;101488.63;5203774;28;20025;-77
2021/04/17 06:41:09;;;;;;;7.13;2.65;;;;;;;5.99;76.51;101485.16;5203984;28;20052;-77
2021/04/17 06:43:42;;;;;;;9.48;3.30;;;;;;;6.18;77.22;101484.22;5200943;28;20025;-77
2021/04/17 06:46:13;;;;;;;9.05;2.75;;;;;;;6.26;77.18;101487.69;5193385;28;20404;-77
2021/04/17 06:48:44;;;;;;;6.78;2.28;;;;;;;6.38;75.97;101469.44;5192609;28;20032;-77
2021/04/17 06:51:17;;;;;;;10.00;3.17;;;;;;;6.52;76.61;101462.44;5201493;28;20025;-77
2021/04/17 06:53:48;;;;;;;10.00;2.83;;;;;;;6.41;75.46;101453.88;5205059;28;20531;-77
2021/04/17 06:56:23;;;;;;;6.03;2.63;;;;;;;6.41;75.79;101449.53;5199384;28;20120;-77
2021/04/17 06:58:54;;;;;;;9.75;2.80;;;;;;;6.16;76.75;101453.13;5204176;28;20028;-77
2021/04/17 07:01:24;;;;;;;13.45;4.88;;;;;;;6.42;76.96;101453.00;5203026;28;20026;-78
2021/04/17 07:03:55;;;;;;;8.82;3.40;;;;;;;5.95;77.52;101452.31;5202957;28;20013;-77
2021/04/17 07:06:25;;;;;;;7.13;3.08;;;;;;;6.17;76.95;101444.47;5202912;28;20029;-77
2021/04/17 07:08:56;;;;;;;10.88;3.42;;;;;;;6.04;77.01;101453.16;5203109;28;20033;-78
2021/04/17 07:11:26;;;;;;;11.32;3.58;;;;;;;6.45;75.82;101452.97;5196703;28;20045;-78
2021/04/17 07:14:06;;;;;;;9.52;3.42;;;;;;;6.30;76.65;101450.47;5201265;28;20079;-77
2021/04/17 07:16:56;;;;;;;9.75;3.55;;;;;;;6.48;75.97;101443.47;5192455;28;20052;-77
2021/04/17 07:19:55;;;;;;;14.18;4.30;;;;;;;6.64;75.93;101446.81;5194474;28;20033;-77
2021/04/17 07:22:28;;;;;;;10.82;4.40;;;;;;;6.66;75.77;101453.75;5195901;28;20427;-78
2021/04/17 07:25:04;;;;;;;13.55;4.32;;;;;;;6.71;76.26;101444.19;5196997;28;20029;-79
2021/04/17 07:27:47;;;;;;;10.13;3.88;;;;;;;6.89;73.39;101448.38;5204265;28;20371;-79
2021/04/17 07:30:17;;;;;;;12.98;3.60;;;;;;;7.04;72.84;101448.28;5204751;28;20051;-78
2021/04/17 07:33:02;;;;;;;10.95;4.00;;;;;;;7.42;72.54;101450.56;5204301;28;20037;-78
2021/04/17 07:35:36;;;;;;;8.93;3.70;;;;;;;7.64;71.39;101436.47;5200751;28;20029;-79
2021/04/17 07:38:18;;;;;;;9.50;3.92;;;;;;;7.60;70.40;101437.41;5203244;28;20658;-78
2021/04/17 07:41:05;;;;;;;10.05;3.40;;;;;;;7.38;70.97;101433.25;5203210;28;20071;-79
2021/04/17 07:43:54;;;;;;;8.00;4.53;;;;;;;7.85;69.90;101417.19;5204149;28;20030;-79
2021/04/17 07:46:25;;;;;;;9.07;3.78;;;;;;;8.83;68.94;101407.22;5204018;28;20108;-79
2021/04/17 07:49:12;;;;;;;12.20;3.50;;;;;;;9.53;66.48;101412.97;5205000;28;20032;-79
2021/04/17 07:52:09;;;;;;;7.53;3.00;;;;;;;9.50;66.65;101405.22;5203174;28;20025;-79
2021/04/17 07:54:40;;;;;;;;;;;;;;;9.41;65.01;101405.34;5203703;28;20025;-79
2021/04/17 07:57:12;;;;;;;9.65;3.42;;;;;;;12.05;61.76;101397.47;5194488;28;19964;-80
2021/04/17 07:59:43;;;;;;;7.70;3.20;;;;;;;14.72;54.09;101381.25;5203177;28;20041;-80
2021/04/17 08:02:15;;;;;;;6.75;2.65;;;;;;;14.93;53.40;101382.13;5204354;28;20037;-80
2021/04/17 08:04:45;;;;;;;12.75;3.15;;;;;;;15.65;49.88;101372.94;5204673;28;20032;-80
2021/04/17 08:07:17;;;;;;;6.38;2.88;;;;;;;16.39;49.99;101368.66;5201961;28;20028;-80
2021/04/17 08:09:48;;;;;;;6.38;3.00;;;;;;;16.67;48.95;101368.22;5205770;28;20116;-80
2021/04/17 08:12:19;;;;;;;10.90;3.38;;;;;;;16.48;49.41;101370.03;5204819;28;20048;-81
2021/04/17 08:14:50;;;;;;;6.75;2.38;;;;;;;17.53;47.63;101369.16;5203450;28;20746;-81
2021/04/17 08:17:21;;;;;;;7.50;2.65;;;;;;;17.27;46.83;101366.94;5203996;28;20108;-81
2021/04/17 08:19:56;;;;;;;8.23;3.33;;;;;;;17.21;47.60;101358.47;5203742;28;20033;-81
2021/04/17 08:22:27;;;;;;;7.70;3.13;;;;;;;18.57;46.70;101366.16;5201786;28;20411;-80
2021/04/17 08:24:58;;;;;;;6.57;2.85;;;;;;;18.52;45.54;101363.75;5212843;28;20029;-80
2021/04/17 08:27:32;;;;;;;6.97;2.80;;;;;;;17.76;45.59;101367.94;5204261;28;20030;-80
2021/04/17 08:30:08;;;;;;;8.55;2.90;;;;;;;17.53;46.40;101371.81;5203121;28;20682;-81
2021/04/17 08:32:44;;;;;;;10.15;2.88;;;;;;;17.60;46.54;101369.66;5203535;28;20105;-81
2021/04/17 08:35:17;;;;;;;7.03;2.47;;;;;;;19.23;44.85;101364.06;5202978;28;20056;-81
2021/04/17 08:37:54;;;;;;;6.45;2.70;;;;;;;19.72;44.28;101370.81;5203344;28;20033;-80
2021/04/17 08:40:39;;;;;;;8.13;3.20;;;;;;;17.53;45.73;101371.81;5202958;28;20121;-80
2021/04/17 08:43:10;;;;;;;11.68;3.58;;;;;;;15.78;49.26;101379.41;5204227;28;20029;-80
2021/04/17 08:46:08;;;;;;;6.93;2.63;;;;;;;15.02;51.51;101381.75;5204908;28;20111;-80
2021/04/17 08:48:58;;;;;;;8.48;3.20;;;;;;;15.06;51.77;101375.47;5203332;28;20276;-80
2021/04/17 08:51:34;;;;;;;7.63;2.47;;;;;;;14.94;52.74;101381.22;5203889;28;20025;-79
2021/04/17 08:54:04;;;;;;;6.85;2.75;;;;;;;14.66;53.07;101382.38;5208103;28;20026;-80
2021/04/17 08:56:56;;;;;;;11.93;3.73;;;;;;;13.59;54.74;101384.66;5204532;28;20056;-79
2021/04/17 08:59:28;;;;;;;7.32;3.00;;;;;;;13.77;55.77;101391.91;5206053;28;20634;-80
2021/04/17 09:02:02;;;;;;;7.57;2.67;;;;;;;14.10;53.89;101383.63;5203468;28;20033;-79
2021/04/17 09:04:37;;;;;;;8.80;2.85;;;;;;;13.73;54.57;101379.78;5203311;28;20030;-79
2021/04/17 09:07:17;;;;;;;9.23;2.90;;;;;;;14.00;54.66;101370.88;5203434;28;20025;-79
2021/04/17 09:09:47;;;;;;;8.85;2.92;;;;;;;13.76;54.68;101375.25;5203094;28;20036;-79
2021/04/17 09:12:22;;;;;;;10.98;2.88;;;;;;;13.48;57.20;101377.16;5200049;28;20025;-79
2021/04/17 09:14:55;;;;;;;6.90;2.80;;;;;;;12.85;56.15;101364.44;5206173;28;20033;-79
2021/04/17 09:17:32;;;;;;;7.78;2.90;;;;;;;13.32;57.27;101372.47;5211841;28;20132;-78
2021/04/17 09:20:04;;;;;;;6.70;2.60;;;;;;;13.07;56.45;101367.19;5212547;28;20503;-79
2021/04/17 09:22:35;;;;;;;10.65;3.00;;;;;;;12.90;56.99;101363.38;5210597;28;20057;-78
2021/04/17 09:25:35;;;;;;;11.48;3.30;;;;;;;12.55;56.87;101354.91;5211372;28;20017;-79
2021/04/17 09:28:05;;;;;;;8.15;3.10;;;;;;;12.62;58.20;101361.69;5208100;28;20036;-78
2021/04/17 09:30:36;;;;;;;8.18;2.45;;;;;;;12.07;58.97;101372.97;5211509;28;20116;-78
2021/04/17 09:33:07;;;;;;;14.20;3.80;;;;;;;11.67;59.87;101363.63;5211229;28;20032;-78
2021/04/17 09:35:38;;;;;;;12.02;3.22;;;;;;;11.27;60.01;101365.56;5211887;28;20053;-79
2021/04/17 09:38:14;;;;;;;7.93;2.80;;;;;;;11.50;59.88;101364.06;5211934;28;20021;-78
2021/04/17 09:40:53;;;;;;;10.27;3.50;;;;;;;11.38;61.30;101368.75;5211133;28;20025;-78
2021/04/17 09:43:29;;;;;;;21.50;3.13;;;;;;;11.20;60.58;101370.09;5206342;28;20120;-78
2021/04/17 09:46:15;;;;;;;18.13;3.70;;;;;;;11.13;60.84;101380.75;5194977;28;20128;-79
2021/04/17 09:48:46;;;;;;;9.95;3.05;;;;;;;10.96;60.58;101368.97;5199919;28;20033;-79
2021/04/17 09:55:36;;;;;;;21.48;11.15;;;;;;;11.08;61.53;101362.56;5204013;28;20459;-79
2021/04/17 09:58:32;;;;;;;8.02;2.53;;;;;;;11.13;62.01;101357.22;5116300;28;20104;-78
2021/04/17 10:01:17;;;;;;;7.80;3.60;;;;;;;11.24;61.21;101356.03;5174616;28;20044;-79
2021/04/17 10:04:01;;;;;;;9.13;2.70;;;;;;;11.48;60.19;101351.91;5198024;28;20033;-78
2021/04/17 10:06:34;;;;;;;11.45;4.63;;;;;;;11.58;60.71;101349.03;5197741;28;20531;-79
2021/04/17 10:09:04;;;;;;;13.27;6.47;;;;;;;11.47;61.09;101348.44;5200042;28;20033;-78
2021/04/17 10:11:51;;;;;;;16.17;7.03;;;;;;;11.53;60.90;101347.41;5197526;28;20036;-79
2021/04/17 10:17:37;;;;;;;9.85;4.90;;;;;;;11.59;61.12;101340.28;5191873;28;20229;-77
2021/04/17 10:20:09;;;;;;;9.23;3.00;;;;;;;11.48;60.58;101337.06;5199601;28;20026;-76
2021/04/17 10:22:39;;;;;;;9.55;3.42;;;;;;;11.51;61.08;101336.13;5193199;28;20025;-77
2021/04/17 10:25:40;;;;;;;10.88;3.53;;;;;;;11.66;60.06;101328.75;5191112;28;20555;-77
2021/04/17 10:28:23;;;;;;;6.60;3.05;;;;;;;11.66;60.81;101336.63;5182350;28;20030;-77
2021/04/17 10:30:58;;;;;;;9.75;3.85;;;;;;;11.68;61.43;101333.94;5177261;28;20573;-77
2021/04/17 10:33:30;;;;;;;6.28;2.47;;;;;;;11.42;58.59;101324.16;5180235;28;20116;-77
2021/04/17 10:36:02;;;;;;;6.95;2.50;;;;;;;11.46;59.42;101322.31;5176493;28;20047;-77
2021/04/17 10:38:40;;;;;;;11.43;4.18;;;;;;;11.58;59.77;101325.47;5174442;28;20475;-77
2021/04/17 10:41:18;;;;;;;6.20;2.25;;;;;;;11.33;60.22;101319.16;5176060;28;20041;-77
2021/04/17 10:44:07;;;;;;;8.27;2.53;;;;;;;11.40;60.00;101323.31;5158316;28;20716;-77
2021/04/17 10:46:46;;;;;;;8.30;2.70;;;;;;;11.34;60.11;101327.88;5172996;28;20041;-76
2021/04/17 10:49:31;;;;;;;5.78;2.53;;;;;;;11.48;59.43;101331.81;5168329;28;20038;-76
2021/04/17 10:52:26;;;;;;;6.22;2.08;;;;;;;11.53;58.67;101316.00;5175800;28;20065;-77
2021/04/17 10:54:57;;;;;;;3.83;1.73;;;;;;;11.46;57.78;101327.53;5173605;28;20389;-77
2021/04/17 10:57:44;;;;;;;5.60;1.67;;;;;;;11.30;57.05;101319.22;5152432;28;20523;-78
2021/04/17 11:00:15;;;;;;;7.00;1.60;;;;;;;11.21;55.67;101319.50;5175792;28;20104;-77
2021/04/17 11:02:50;;;;;;;3.53;1.45;;;;;;;10.99;55.57;101319.22;5173111;28;20093;-77
2021/04/17 11:05:21;;;;;;;5.75;1.70;;;;;;;11.18;55.98;101319.56;5176202;28;20033;-77
2021/04/17 11:08:02;;;;;;;4.25;1.52;;;;;;;11.26;56.42;101317.59;5175343;28;20427;-77
2021/04/17 11:10:35;;;;;;;4.38;1.60;;;;;;;11.19;56.53;101316.06;5172692;28;20041;-77
2021/04/17 11:13:06;;;;;;;9.13;1.70;;;;;;;11.19;57.19;101323.91;5175818;28;20686;-78
2021/04/17 11:15:44;;;;;;;4.85;2.00;;;;;;;11.12;57.50;101316.25;5173386;28;20088;-77
2021/04/17 11:18:16;;;;;;;4.97;1.80;;;;;;;11.10;57.52;101320.66;5164204;28;20025;-77
2021/04/17 11:21:01;;;;;;;5.88;1.83;;;;;;;11.02;57.44;101328.72;5175120;28;20034;-77
2021/04/17 11:23:47;;;;;;;4.47;1.73;;;;;;;11.09;57.42;101325.03;5173876;28;20585;-77
2021/04/17 11:26:26;;;;;;;5.20;1.70;;;;;;;11.02;56.74;101312.16;5177747;28;20037;-77
2021/04/17 11:29:02;;;;;;;5.45;1.95;;;;;;;10.92;57.39;101318.53;5183881;28;20034;-77
2021/04/17 11:31:34;;;;;;;3.92;1.85;;;;;;;11.02;57.38;101319.16;5172991;28;20109;-77
2021/04/17 11:34:05;;;;;;;5.97;1.90;;;;;;;11.01;57.19;101320.06;5171542;28;20408;-77
2021/04/17 11:36:36;;;;;;;5.03;1.80;;;;;;;11.00;57.67;101318.34;5174768;28;20038;-77
2021/04/17 11:39:06;;;;;;;6.93;2.10;;;;;;;11.09;57.47;101318.97;5175068;28;20026;-77
2021/04/17 11:41:37;;;;;;;5.07;1.80;;;;;;;11.15;57.70;101314.44;5176171;28;20034;-77
2021/04/17 11:44:08;;;;;;;6.00;2.13;;;;;;;11.32;57.73;101312.22;5175346;28;20076;-77
2021/04/17 11:46:38;;;;;;;5.70;1.95;;;;;;;10.90;58.55;101314.22;5172952;28;20034;-78
2021/04/17 11:49:09;;;;;;;7.10;2.20;;;;;;;11.21;59.06;101313.38;5175549;28;20476;-77
2021/04/17 11:51:40;;;;;;;3.70;2.00;;;;;;;11.22;58.23;101315.97;5173862;28;21812;-76
2021/04/17 11:54:10;;;;;;;4.95;2.20;;;;;;;11.21;58.53;101316.88;5183714;28;20030;-77
2021/04/17 11:56:40;;;;;;;6.03;2.60;;;;;;;11.23;57.96;101320.31;5175820;28;20059;-77
2021/04/17 11:59:11;;;;;;;6.65;2.30;;;;;;;11.23;58.48;101314.19;5181153;28;20084;-76
2021/04/17 12:01:41;;;;;;;7.68;2.50;;;;;;;11.22;58.79;101313.34;5182374;28;20053;-77
2021/04/17 12:04:12;;;;;;;9.27;2.50;;;;;;;11.32;58.68;101312.22;5174907;28;20022;-77